EYPA

Details ICAO EYPA (PLQ)
Name PALANGA INTL
Region Lithuania
Timezone Europe/Vilnius (UTC+2.0)
Plans Departing 62
Arriving 58
Stats Elevation 33 ft / 10 m (AMSL)
Location 55.973115° 21.093811°
Runways 1
Magnetic Variation 6.525° E
Sunrise 2017-12-14 07:01:11 UTC / 2017-12-14 09:01:11 Local
Sunset 2017-12-14 14:02:10 UTC / 2017-12-14 16:02:10 Local
Advertisement - Login to hide

Runways

ID Width Length Bearing (true) Bearing (mag) Surface Threshold Offset Overrun Length
01 131 ft / 40 m 6,473 ft / 1,973 m 12.70° 6.17° Asphalt 0 ft / 0 m 0 ft / 0 m
19 131 ft / 40 m 6,473 ft / 1,973 m 192.71° 186.18° Asphalt 0 ft / 0 m 0 ft / 0 m

Approach Navaids

Runway Type Ident Frequency Range Bearing (true) Bearing (mag) Slope Elevation
19 Localiser IAN 110.10 MHz 18 nm / 33 km 192.71° 186.18° - 33 ft / 10 m (AMSL)
19 Glidescope IAN 110.10 MHz 10 nm / 19 km 192.71° 186.18° 3.00° 33 ft / 10 m (AMSL)
19 DME IAN 110.10 MHz 18 nm / 33 km - - - 39 ft / 12 m (AMSL)

Map

Weather


0- 5 10 15 20 25 30 35+ Temperature / ° C

Clouds and Precipitation
Forecast for 2017-12-14 00:00 UTC. Updated 2 hours ago

Ground ~20,000 ft ~40,000 ft Winds

METAR

EYPA 132220Z 16012KT 9999 FEW009 SCT015 M01/M02 Q1002 R19/1///95

TAF

Not found

Frequencies

Tower 118.30 MHz TWR
Approach 124.30 MHz APP
Warning: Do not use this data for real-world aviation or navigation. No guarantee of current accuracy is given.